createdAt,value
2023-09-16T00:01:07.061Z,17.96
2023-09-16T00:03:36.412Z,17.82
2023-09-16T00:06:05.445Z,17.87
2023-09-16T00:08:35.620Z,17.91
2023-09-16T00:11:02.339Z,17.90
2023-09-16T00:13:29.204Z,17.99
2023-09-16T00:15:55.976Z,18.15
2023-09-16T00:18:22.806Z,17.93
2023-09-16T00:20:50.279Z,17.97
2023-09-16T00:23:17.553Z,17.81
2023-09-16T00:25:44.306Z,17.34
2023-09-16T00:28:11.039Z,17.49
2023-09-16T00:30:37.725Z,17.84
2023-09-16T00:33:04.852Z,17.82
2023-09-16T00:35:31.753Z,17.81
2023-09-16T00:37:58.548Z,17.77
2023-09-16T00:40:25.214Z,17.46
2023-09-16T00:42:51.899Z,17.40
2023-09-16T00:45:18.661Z,17.51
2023-09-16T00:47:45.397Z,17.61
2023-09-16T00:50:15.090Z,17.68
2023-09-16T00:52:56.810Z,17.76
2023-09-16T00:55:23.638Z,18.02
2023-09-16T00:57:51.826Z,18.02
2023-09-16T01:00:19.219Z,18.06
2023-09-16T01:02:46.008Z,17.85
2023-09-16T01:05:16.700Z,17.81
2023-09-16T01:07:43.789Z,17.91
2023-09-16T01:10:13.162Z,17.86
2023-09-16T01:12:40.091Z,17.82
2023-09-16T01:15:07.560Z,17.60
2023-09-16T01:18:13.767Z,17.66
2023-09-16T01:20:40.486Z,17.48
2023-09-16T01:23:07.993Z,17.26
2023-09-16T01:25:34.770Z,17.05
2023-09-16T01:28:01.454Z,17.20
2023-09-16T01:30:28.953Z,17.08
2023-09-16T01:33:03.909Z,17.33
2023-09-16T01:35:30.979Z,17.29
2023-09-16T01:37:57.595Z,17.34
2023-09-16T01:40:24.899Z,17.29
2023-09-16T01:42:51.705Z,17.09
2023-09-16T01:45:18.416Z,16.96
2023-09-16T01:47:46.043Z,17.07
2023-09-16T01:50:13.076Z,17.41
2023-09-16T02:04:16.928Z,17.24
2023-09-16T02:06:45.560Z,17.43
2023-09-16T02:09:12.922Z,17.45
2023-09-16T02:11:39.919Z,17.52
2023-09-16T02:14:08.947Z,17.61
2023-09-16T02:16:35.852Z,17.59
2023-09-16T02:19:02.750Z,17.40
2023-09-16T02:21:29.576Z,17.16
2023-09-16T02:23:56.338Z,17.01
2023-09-16T02:26:23.072Z,17.22
2023-09-16T02:28:50.096Z,17.46
2023-09-16T02:31:17.368Z,17.66
2023-09-16T02:33:44.076Z,17.60
2023-09-16T02:36:10.861Z,17.55
2023-09-16T02:38:37.599Z,17.51
2023-09-16T02:41:05.266Z,17.67
2023-09-16T02:43:32.362Z,17.80
2023-09-16T02:45:59.191Z,17.85
2023-09-16T02:48:26.036Z,17.80
2023-09-16T02:50:52.774Z,17.64
2023-09-16T03:16:15.688Z,16.99
2023-09-16T03:18:46.840Z,17.07
2023-09-16T03:21:15.000Z,16.94
2023-09-16T03:23:42.224Z,17.06
2023-09-16T03:26:09.311Z,17.19
2023-09-16T03:28:36.299Z,17.19
2023-09-16T03:31:03.169Z,17.17
2023-09-16T03:33:29.872Z,17.07
2023-09-16T03:35:56.526Z,17.03
2023-09-16T03:38:24.993Z,17.21
2023-09-16T03:40:51.992Z,17.12
2023-09-16T03:43:19.229Z,17.09
2023-09-16T03:45:45.931Z,17.07
2023-09-16T03:48:12.624Z,17.22
2023-09-16T03:50:39.405Z,17.13
2023-09-16T03:53:11.338Z,17.21
2023-09-16T03:55:38.362Z,17.27
2023-09-16T03:58:05.025Z,17.21
2023-09-16T04:00:31.776Z,17.00
2023-09-16T04:02:58.516Z,17.15
2023-09-16T04:05:25.412Z,17.16
2023-09-16T04:07:52.059Z,17.37
2023-09-16T04:10:18.883Z,17.09
2023-09-16T04:12:45.676Z,17.06
2023-09-16T04:15:12.454Z,16.98
2023-09-16T04:17:39.202Z,16.92
2023-09-16T04:20:07.468Z,17.17
2023-09-16T04:22:34.370Z,17.20
2023-09-16T04:25:01.235Z,17.39
2023-09-16T04:27:27.935Z,17.27
2023-09-16T04:29:54.631Z,17.28
2023-09-16T04:32:21.401Z,17.11
2023-09-16T04:34:48.433Z,17.05
2023-09-16T04:37:17.111Z,16.91
2023-09-16T04:39:44.189Z,16.89
2023-09-16T04:42:10.958Z,16.92
2023-09-16T04:44:40.282Z,17.14
2023-09-16T04:47:11.696Z,16.87
2023-09-16T04:49:38.307Z,16.84
2023-09-16T04:52:05.554Z,17.15
2023-09-16T04:54:37.147Z,17.25
2023-09-16T04:57:04.082Z,17.25
2023-09-16T04:59:33.955Z,17.25
2023-09-16T05:02:00.890Z,17.06
2023-09-16T05:04:27.827Z,17.14
2023-09-16T05:06:54.772Z,17.10
2023-09-16T05:09:22.771Z,17.09
2023-09-16T05:11:49.464Z,17.15
2023-09-16T05:14:16.887Z,17.17
2023-09-16T05:16:43.696Z,17.52
2023-09-16T05:19:10.469Z,17.44
2023-09-16T05:21:37.461Z,17.26
2023-09-16T05:24:04.428Z,16.86
2023-09-16T05:26:32.158Z,16.97
2023-09-16T05:28:58.899Z,17.13
2023-09-16T05:31:25.903Z,17.05
2023-09-16T05:33:52.699Z,17.12
2023-09-16T05:36:19.953Z,16.98
2023-09-16T05:38:46.770Z,17.10
2023-09-16T05:41:13.509Z,16.99
2023-09-16T05:43:40.182Z,16.91
2023-09-16T05:46:07.658Z,16.94
2023-09-16T05:48:34.678Z,16.90
2023-09-16T05:51:01.591Z,16.73
2023-09-16T05:53:28.738Z,16.92
2023-09-16T05:55:55.459Z,16.85
2023-09-16T05:58:22.227Z,16.85
2023-09-16T06:00:56.418Z,16.82
2023-09-16T06:03:23.200Z,16.78
2023-09-16T06:30:04.266Z,15.95
2023-09-16T06:32:30.898Z,16.50
2023-09-16T06:34:57.554Z,16.68
2023-09-16T06:37:24.437Z,16.84
2023-09-16T06:39:51.137Z,17.22
2023-09-16T06:42:17.783Z,17.45
2023-09-16T06:44:44.529Z,17.43
2023-09-16T06:47:11.274Z,17.27
2023-09-16T06:49:37.930Z,17.48
2023-09-16T06:52:05.114Z,17.84
2023-09-16T07:26:31.329Z,16.58
2023-09-16T07:28:58.420Z,17.14
2023-09-16T07:31:25.173Z,17.46
2023-09-16T07:33:52.656Z,17.70
2023-09-16T07:36:19.369Z,17.71
2023-09-16T07:38:46.127Z,17.48
2023-09-16T07:41:12.876Z,17.54
2023-09-16T07:43:39.713Z,17.54
2023-09-16T07:46:06.438Z,17.81
2023-09-16T07:48:33.737Z,17.53
2023-09-16T07:51:00.544Z,17.23
2023-09-16T07:53:27.346Z,17.19
2023-09-16T07:55:54.106Z,17.41
2023-09-16T07:58:20.906Z,17.15
2023-09-16T08:00:47.810Z,17.39
2023-09-16T08:03:14.738Z,17.53
2023-09-16T08:05:41.534Z,17.36
2023-09-16T08:20:43.414Z,18.63
2023-09-16T08:23:14.896Z,18.77
2023-09-16T08:25:41.622Z,18.79
2023-09-16T08:28:08.425Z,18.75
2023-09-16T08:30:35.186Z,18.73
2023-09-16T08:33:01.985Z,18.38
2023-09-16T08:35:28.823Z,18.43
2023-09-16T08:37:56.201Z,18.29
2023-09-16T08:40:23.307Z,18.14
2023-09-16T08:42:54.941Z,18.09
2023-09-16T08:45:21.685Z,17.75
2023-09-16T08:47:54.068Z,17.90
2023-09-16T08:50:22.761Z,18.01
2023-09-16T08:52:54.787Z,17.95
2023-09-16T08:55:22.068Z,18.00
2023-09-16T08:58:20.833Z,18.32
2023-09-16T09:00:47.799Z,18.63
2023-09-16T09:03:14.724Z,18.66
2023-09-16T09:05:41.459Z,18.78
2023-09-16T09:08:10.295Z,18.64
2023-09-16T09:10:41.300Z,19.05
2023-09-16T09:13:12.727Z,19.35
2023-09-16T09:15:40.742Z,19.32
2023-09-16T09:18:07.869Z,19.33
2023-09-16T09:20:35.332Z,19.19
2023-09-16T09:23:02.746Z,19.28
2023-09-16T09:25:29.892Z,19.28
2023-09-16T09:27:59.160Z,19.55
2023-09-16T09:30:28.444Z,19.79
2023-09-16T09:32:59.250Z,19.68
2023-09-16T09:35:30.125Z,19.82
2023-09-16T09:37:57.479Z,20.08
2023-09-16T09:40:24.372Z,20.17
2023-09-16T09:42:52.586Z,20.26
2023-09-16T09:45:20.552Z,20.24
2023-09-16T09:47:48.414Z,20.15
2023-09-16T09:50:16.600Z,20.05
2023-09-16T09:52:47.903Z,19.84
2023-09-16T09:55:24.537Z,19.83
2023-09-16T09:57:52.476Z,20.10
2023-09-16T10:00:20.388Z,20.01
2023-09-16T10:02:49.172Z,20.18
2023-09-16T10:05:16.802Z,20.12
2023-09-16T10:07:46.632Z,20.41
2023-09-16T10:10:19.795Z,20.84
2023-09-16T10:12:46.728Z,20.89
2023-09-16T10:15:13.969Z,21.02
2023-09-16T10:17:41.943Z,20.93
2023-09-16T10:20:11.795Z,21.02
2023-09-16T10:22:42.136Z,21.48
2023-09-16T10:25:09.669Z,21.89
2023-09-16T10:27:40.796Z,22.18
2023-09-16T10:30:07.960Z,22.23
2023-09-16T10:32:34.805Z,22.45
2023-09-16T10:35:03.990Z,22.42
2023-09-16T10:37:30.754Z,22.53
2023-09-16T10:39:57.568Z,22.70
2023-09-16T10:42:24.257Z,23.07
2023-09-16T10:44:50.955Z,23.22
2023-09-16T10:47:17.965Z,23.57
2023-09-16T10:49:47.986Z,23.53
2023-09-16T10:52:17.593Z,23.70
2023-09-16T10:54:53.003Z,23.84
2023-09-16T10:57:27.009Z,23.58
2023-09-16T10:59:53.815Z,23.11
2023-09-16T11:02:45.715Z,23.14
2023-09-16T11:05:12.476Z,23.18
2023-09-16T11:07:39.201Z,23.26
2023-09-16T11:10:06.701Z,23.14
2023-09-16T11:12:33.400Z,23.59
2023-09-16T11:15:05.849Z,23.51
2023-09-16T11:17:32.770Z,23.39
2023-09-16T11:20:14.590Z,23.35
2023-09-16T11:22:48.193Z,23.37
2023-09-16T11:25:16.222Z,23.42
2023-09-16T11:27:43.110Z,23.34
2023-09-16T11:30:14.037Z,23.16
2023-09-16T11:32:42.159Z,23.42
2023-09-16T11:35:09.991Z,23.39
2023-09-16T11:37:36.873Z,23.75
2023-09-16T11:40:03.810Z,24.26
2023-09-16T11:42:31.476Z,24.08
2023-09-16T11:44:58.880Z,24.12
2023-09-16T11:47:30.812Z,24.52
2023-09-16T11:49:57.493Z,24.94
2023-09-16T11:52:25.441Z,25.13
2023-09-16T11:54:52.957Z,25.21
2023-09-16T11:57:19.704Z,25.69
2023-09-16T11:59:47.407Z,25.79
2023-09-16T12:02:14.092Z,26.12
2023-09-16T12:04:40.978Z,26.08
2023-09-16T12:07:07.758Z,25.43
2023-09-16T12:09:34.602Z,24.93
2023-09-16T12:12:02.105Z,24.26
2023-09-16T12:14:29.927Z,24.18
2023-09-16T12:16:57.071Z,24.22
2023-09-16T12:19:23.873Z,24.53
2023-09-16T12:21:50.782Z,25.42
2023-09-16T12:24:21.990Z,25.42
2023-09-16T12:26:49.385Z,25.22
2023-09-16T12:29:16.083Z,25.04
2023-09-16T12:31:43.894Z,25.00
2023-09-16T12:34:19.829Z,24.93
2023-09-16T12:36:53.009Z,25.25
2023-09-16T12:39:23.666Z,25.98
2023-09-16T12:42:04.561Z,26.32
2023-09-16T12:44:39.036Z,26.85
2023-09-16T12:47:05.965Z,27.15
2023-09-16T12:49:32.791Z,27.22
2023-09-16T12:51:59.593Z,27.29
2023-09-16T12:54:26.262Z,27.58
2023-09-16T12:56:53.324Z,27.23
2023-09-16T12:59:20.284Z,27.42
2023-09-16T13:01:47.120Z,27.65
2023-09-16T13:04:13.992Z,27.93
2023-09-16T13:06:40.689Z,27.99
2023-09-16T13:09:07.763Z,27.91
2023-09-16T13:11:34.934Z,27.55
2023-09-16T13:14:01.611Z,27.93
2023-09-16T13:16:29.358Z,27.93
2023-09-16T13:18:56.205Z,28.00
2023-09-16T13:21:32.766Z,27.41
2023-09-16T13:24:01.819Z,27.63
2023-09-16T13:26:28.548Z,27.18
2023-09-16T13:28:59.536Z,27.32
2023-09-16T13:31:26.900Z,27.64
2023-09-16T13:34:01.327Z,27.57
2023-09-16T13:36:30.471Z,27.52
2023-09-16T13:38:57.274Z,27.35
2023-09-16T13:41:25.813Z,27.18
2023-09-16T13:43:53.152Z,27.11
2023-09-16T13:46:20.008Z,26.82
2023-09-16T13:48:48.955Z,26.95
2023-09-16T13:51:16.208Z,26.82
2023-09-16T13:53:43.225Z,26.85
2023-09-16T13:56:11.417Z,27.26
2023-09-16T13:58:38.738Z,26.93
2023-09-16T14:01:05.777Z,26.62
2023-09-16T14:03:33.133Z,25.91
2023-09-16T14:06:00.584Z,25.92
2023-09-16T14:08:27.325Z,25.48
2023-09-16T14:10:54.148Z,25.49
2023-09-16T14:13:20.919Z,25.93
2023-09-16T14:15:47.748Z,26.15
2023-09-16T14:18:15.845Z,26.25
2023-09-16T14:20:42.604Z,26.20
2023-09-16T14:23:09.280Z,26.35
2023-09-16T14:25:36.211Z,25.87
2023-09-16T14:28:04.055Z,26.34
2023-09-16T14:30:33.092Z,26.69
2023-09-16T14:33:00.086Z,26.72
2023-09-16T14:35:27.023Z,26.57
2023-09-16T14:37:54.671Z,26.36
2023-09-16T14:40:21.780Z,26.44
2023-09-16T14:42:48.531Z,26.20
2023-09-16T14:45:15.339Z,25.96
2023-09-16T14:47:44.225Z,25.69
2023-09-16T14:50:12.081Z,25.24
2023-09-16T14:52:39.870Z,25.39
2023-09-16T14:55:09.691Z,25.43
2023-09-16T14:57:37.604Z,25.37
2023-09-16T15:00:07.982Z,25.12
2023-09-16T15:02:35.017Z,24.84
2023-09-16T15:05:01.835Z,24.79
2023-09-16T15:07:28.616Z,24.65
2023-09-16T15:09:55.399Z,24.47
2023-09-16T15:12:22.095Z,24.42
2023-09-16T15:14:49.763Z,24.70
2023-09-16T15:17:16.590Z,24.72
2023-09-16T15:19:43.319Z,24.63
2023-09-16T15:22:10.023Z,24.34
2023-09-16T15:24:36.828Z,24.23
2023-09-16T15:27:03.702Z,24.00
2023-09-16T15:29:30.535Z,24.15
2023-09-16T15:32:16.382Z,23.98
2023-09-16T15:34:44.255Z,23.75
2023-09-16T15:37:11.084Z,23.66
2023-09-16T15:39:37.987Z,23.57
2023-09-16T15:42:04.844Z,23.43
2023-09-16T15:44:31.567Z,23.37
2023-09-16T15:46:58.911Z,23.29
2023-09-16T15:49:25.795Z,22.97
2023-09-16T15:51:52.550Z,23.06
2023-09-16T15:54:19.888Z,22.94
2023-09-16T15:56:46.530Z,22.62
2023-09-16T15:59:13.390Z,22.42
2023-09-16T16:01:41.502Z,22.25
2023-09-16T16:04:08.385Z,22.20
2023-09-16T16:06:35.203Z,22.28
2023-09-16T16:09:01.991Z,22.24
2023-09-16T16:11:28.767Z,22.01
2023-09-16T16:13:56.833Z,21.93
2023-09-16T16:16:24.217Z,21.78
2023-09-16T16:18:52.519Z,21.66
2023-09-16T16:21:19.253Z,21.79
2023-09-16T16:23:46.035Z,22.03
2023-09-16T16:26:12.633Z,21.96
2023-09-16T16:28:39.550Z,21.84
2023-09-16T16:31:06.533Z,21.87
2023-09-16T16:33:33.439Z,21.78
2023-09-16T16:36:00.236Z,21.74
2023-09-16T16:38:28.535Z,21.20
2023-09-16T16:40:57.103Z,21.01
2023-09-16T16:43:23.956Z,21.26
2023-09-16T16:45:50.713Z,21.22
2023-09-16T16:48:18.850Z,21.29
2023-09-16T16:50:45.766Z,21.23
2023-09-16T16:53:13.308Z,21.29
2023-09-16T16:55:40.430Z,21.19
2023-09-16T16:58:07.816Z,21.40
2023-09-16T17:00:34.787Z,21.33
2023-09-16T17:03:01.675Z,21.27
2023-09-16T17:05:28.554Z,21.30
2023-09-16T17:07:58.235Z,21.21
2023-09-16T17:10:25.005Z,21.14
2023-09-16T17:12:51.926Z,21.18
2023-09-16T17:15:19.612Z,20.89
2023-09-16T17:17:46.915Z,20.87
2023-09-16T17:20:14.933Z,20.97
2023-09-16T17:22:44.203Z,20.93
2023-09-16T17:25:10.979Z,21.04
2023-09-16T17:27:40.839Z,21.07
2023-09-16T17:30:09.821Z,20.77
2023-09-16T17:32:36.913Z,20.81
2023-09-16T17:35:05.420Z,20.78
2023-09-16T17:37:33.498Z,20.76
2023-09-16T17:40:00.498Z,20.75
2023-09-16T17:42:27.938Z,20.85
2023-09-16T17:44:54.756Z,20.63
2023-09-16T17:47:21.490Z,20.42
2023-09-16T17:49:48.303Z,20.31
2023-09-16T17:52:15.168Z,20.46
2023-09-16T17:54:41.941Z,20.46
2023-09-16T17:57:08.683Z,20.39
2023-09-16T17:59:35.542Z,20.19
2023-09-16T18:02:02.363Z,20.26
2023-09-16T18:04:29.233Z,20.31
2023-09-16T18:06:55.999Z,20.08
2023-09-16T18:09:22.725Z,19.80
2023-09-16T18:11:50.422Z,19.61
2023-09-16T18:14:17.763Z,19.83
2023-09-16T18:16:44.682Z,20.04
2023-09-16T18:19:12.198Z,20.18
2023-09-16T18:21:39.170Z,20.28
2023-09-16T18:24:07.057Z,20.21
2023-09-16T18:26:33.844Z,20.06
2023-09-16T18:29:00.555Z,20.11
2023-09-16T18:31:27.436Z,20.00
2023-09-16T18:33:54.364Z,19.99
2023-09-16T18:36:21.118Z,19.88
2023-09-16T18:38:48.132Z,19.85
2023-09-16T18:41:15.233Z,19.41
2023-09-16T18:43:41.939Z,19.46
2023-09-16T18:46:08.648Z,19.64
2023-09-16T18:48:35.508Z,19.74
2023-09-16T18:51:02.423Z,19.59
2023-09-16T18:53:29.171Z,19.54
2023-09-16T18:55:56.275Z,19.61
2023-09-16T18:58:23.110Z,19.54
2023-09-16T19:00:49.926Z,19.50
2023-09-16T19:03:16.857Z,19.36
2023-09-16T19:05:43.771Z,19.28
2023-09-16T19:08:10.564Z,19.33
2023-09-16T19:10:39.266Z,19.06
2023-09-16T19:13:07.469Z,18.85
2023-09-16T19:15:34.413Z,19.00
2023-09-16T19:18:01.105Z,19.27
2023-09-16T19:20:27.840Z,19.08
2023-09-16T19:22:54.645Z,19.13
2023-09-16T19:25:21.485Z,19.22
2023-09-16T19:27:48.150Z,19.16
2023-09-16T19:30:14.887Z,18.75
2023-09-16T19:32:41.629Z,18.78
2023-09-16T19:35:08.734Z,18.66
2023-09-16T19:37:35.420Z,18.52
2023-09-16T19:40:02.795Z,18.40
2023-09-16T19:42:29.694Z,18.57
2023-09-16T19:44:56.431Z,18.53
2023-09-16T19:47:25.498Z,18.22
2023-09-16T19:49:53.317Z,18.40
2023-09-16T19:52:20.738Z,18.58
2023-09-16T19:54:47.631Z,18.55
2023-09-16T19:57:14.430Z,18.55
2023-09-16T19:59:41.274Z,18.56
2023-09-16T20:02:08.172Z,18.27
2023-09-16T20:04:35.278Z,18.34
2023-09-16T20:07:02.229Z,18.27
2023-09-16T20:09:29.219Z,18.17
2023-09-16T20:11:55.952Z,18.22
2023-09-16T20:14:22.614Z,18.40
2023-09-16T20:16:49.541Z,18.28
2023-09-16T20:19:21.812Z,18.21
2023-09-16T20:21:50.823Z,17.78
2023-09-16T20:24:17.583Z,17.80
2023-09-16T20:26:44.314Z,17.83
2023-09-16T20:29:11.071Z,18.02
2023-09-16T20:31:38.130Z,18.20
2023-09-16T20:34:11.706Z,18.07
2023-09-16T20:36:42.646Z,18.11
2023-09-16T20:39:09.494Z,18.01
2023-09-16T20:41:36.229Z,18.13
2023-09-16T20:44:04.295Z,17.82
2023-09-16T20:46:31.419Z,18.12
2023-09-16T20:48:58.227Z,18.33
2023-09-16T20:51:25.110Z,18.26
2023-09-16T20:53:52.196Z,18.00
2023-09-16T20:56:18.968Z,18.30
2023-09-16T20:58:45.709Z,18.36
2023-09-16T21:01:13.037Z,18.37
2023-09-16T21:03:40.730Z,18.56
2023-09-16T21:06:07.554Z,18.61
2023-09-16T21:08:34.318Z,18.41
2023-09-16T21:11:01.008Z,18.61
2023-09-16T21:13:27.767Z,18.62
2023-09-16T21:15:54.594Z,18.66
2023-09-16T21:18:22.068Z,18.57
2023-09-16T21:20:48.834Z,18.62
2023-09-16T21:23:15.582Z,18.65
2023-09-16T21:25:42.573Z,18.52
2023-09-16T21:28:09.287Z,18.51
2023-09-16T21:30:36.064Z,18.74
2023-09-16T21:33:04.090Z,18.60
2023-09-16T21:35:30.999Z,18.60
2023-09-16T21:37:57.779Z,18.44
2023-09-16T21:40:25.832Z,18.69
2023-09-16T21:42:53.177Z,18.42
2023-09-16T21:45:19.994Z,18.52
2023-09-16T21:47:46.846Z,18.67
2023-09-16T21:50:13.567Z,18.69
2023-09-16T21:52:40.374Z,18.44
2023-09-16T21:55:07.768Z,18.62
2023-09-16T21:57:34.558Z,18.50
2023-09-16T22:00:01.810Z,18.56
2023-09-16T22:02:28.733Z,18.50
2023-09-16T22:04:55.624Z,18.63
2023-09-16T22:07:22.382Z,18.63
2023-09-16T22:09:49.270Z,18.53
2023-09-16T22:12:15.913Z,18.40
2023-09-16T22:14:42.625Z,18.45
2023-09-16T22:17:09.329Z,18.29
2023-09-16T22:19:36.110Z,18.42
2023-09-16T22:22:02.940Z,18.52
2023-09-16T22:24:29.615Z,18.64
2023-09-16T22:26:58.298Z,18.45
2023-09-16T22:29:25.121Z,18.57
2023-09-16T22:31:51.912Z,18.45
2023-09-16T22:34:18.747Z,18.21
2023-09-16T22:36:45.510Z,18.13
2023-09-16T22:39:12.307Z,18.32
2023-09-16T22:41:39.144Z,18.36
2023-09-16T22:44:07.223Z,18.43
2023-09-16T22:46:37.033Z,18.47
2023-09-16T22:49:04.337Z,18.45
2023-09-16T22:51:31.437Z,18.43
2023-09-16T22:53:58.316Z,18.27
2023-09-16T22:56:24.977Z,18.30
2023-09-16T22:58:51.898Z,18.65
2023-09-16T23:01:19.273Z,18.94
2023-09-16T23:03:46.152Z,18.57
2023-09-16T23:06:12.839Z,18.66
2023-09-16T23:08:39.812Z,18.71
2023-09-16T23:11:06.615Z,18.42
2023-09-16T23:13:34.325Z,18.27
2023-09-16T23:16:01.082Z,18.30
2023-09-16T23:18:27.914Z,18.40
2023-09-16T23:20:58.351Z,18.33
2023-09-16T23:23:25.851Z,18.33
2023-09-16T23:25:53.422Z,18.31
2023-09-16T23:28:20.219Z,18.40
2023-09-16T23:30:46.966Z,18.18
2023-09-16T23:33:15.789Z,18.19
2023-09-16T23:35:42.588Z,18.12
2023-09-16T23:38:09.412Z,18.06
2023-09-16T23:40:36.689Z,18.07
2023-09-16T23:43:04.492Z,18.03
2023-09-16T23:45:31.183Z,18.10
2023-09-16T23:47:57.937Z,17.86
2023-09-16T23:50:24.591Z,17.88
2023-09-16T23:52:51.343Z,18.01
2023-09-16T23:55:18.172Z,18.19
2023-09-16T23:57:44.898Z,18.13
